CheckWX is a tool to help pilots better visualize weather data.  It is not intended as a substitute for an official pre-flight weather briefing.

16:08:09 UTC

KSFO METAR
San Francisco International Airport
San Francisco, California, USA
Current

12 mins ago

KSFO 211556Z 00000KT 10SM FEW009 BKN013 BKN200 18/12 A2995 RMK AO2 SLP142 T01780122
Observed
Jul-21 @ 15:56 UTC
Visibility
10 SM
Flight Rules
MVFR
Cloud Levels
  • Few at 900' AGL
  • Broken at 1,300' AGL
  • Broken at 20,000' AGL
Temperature
18°C / 64°F
Dewpoint
12°C / 54°F
Humidity
68%
Altimeter
29.95" Hg
Pressure
1014.22 hPa
Previous

1 hour ago

KSFO 211456Z 00000KT 10SM FEW009 BKN014 BKN016 16/12 A2994 RMK AO2 SLP137 T01610117 52012
Observed
Jul-21 @ 14:56 UTC
Visibility
10 SM
Flight Rules
MVFR
Cloud Levels
  • Few at 900' AGL
  • Broken at 1,400' AGL
  • Broken at 1,600' AGL
Temperature
16°C / 61°F
Dewpoint
12°C / 54°F
Humidity
77%
Altimeter
29.94" Hg
Pressure
1013.92 hPa
Previous

2 hours ago

KSFO 211356Z 29006KT 10SM FEW009 BKN014 BKN016 14/12 A2992 RMK AO2 SLP133 T01440117
Observed
Jul-21 @ 13:56 UTC
Wind
  • 290° at 6 KTS
Visibility
10 SM
Flight Rules
MVFR
Cloud Levels
  • Few at 900' AGL
  • Broken at 1,400' AGL
  • Broken at 1,600' AGL
Temperature
14°C / 57°F
Dewpoint
12°C / 54°F
Humidity
88%
Altimeter
29.92" Hg
Pressure
1013.22 hPa